createdAt,value
2023-03-30T00:01:56.608Z,13.52
2023-03-30T00:04:27.311Z,9.88
2023-03-30T00:06:54.727Z,13.05
2023-03-30T00:09:22.872Z,14.13
2023-03-30T00:11:50.265Z,22.77
2023-03-30T00:14:18.378Z,20.45
2023-03-30T00:16:45.246Z,18.98
2023-03-30T00:19:12.254Z,13.18
2023-03-30T00:21:39.290Z,9.80
2023-03-30T00:24:06.358Z,9.93
2023-03-30T00:26:33.477Z,9.80
2023-03-30T00:29:00.260Z,10.85
2023-03-30T00:31:27.689Z,8.00
2023-03-30T00:33:54.542Z,7.47
2023-03-30T00:36:22.579Z,9.95
2023-03-30T00:38:49.526Z,11.93
2023-03-30T00:41:16.766Z,11.02
2023-03-30T00:44:04.854Z,8.88
2023-03-30T00:46:32.288Z,8.55
2023-03-30T00:49:08.845Z,9.07
2023-03-30T00:51:39.078Z,9.20
2023-03-30T00:54:16.837Z,9.63
2023-03-30T00:56:43.902Z,10.07
2023-03-30T00:59:11.289Z,10.48
2023-03-30T01:01:40.581Z,9.18
2023-03-30T01:04:09.922Z,10.65
2023-03-30T01:06:40.350Z,10.93
2023-03-30T01:09:08.742Z,10.65
2023-03-30T01:11:36.052Z,9.45
2023-03-30T01:14:10.126Z,9.38
2023-03-30T01:16:55.908Z,7.32
2023-03-30T01:19:44.810Z,7.80
2023-03-30T01:22:39.692Z,6.78
2023-03-30T01:25:45.438Z,10.57
2023-03-30T01:28:37.305Z,8.55
2023-03-30T01:31:25.796Z,15.70
2023-03-30T01:34:40.092Z,14.20
2023-03-30T01:37:15.958Z,9.10
2023-03-30T01:39:54.979Z,8.95
2023-03-30T01:42:39.930Z,7.40
2023-03-30T01:45:13.724Z,7.38
2023-03-30T01:47:59.246Z,9.32
2023-03-30T01:50:31.987Z,7.50
2023-03-30T01:53:10.410Z,8.05
2023-03-30T01:56:00.711Z,6.80
2023-03-30T01:58:36.155Z,9.57
2023-03-30T02:01:06.924Z,12.40
2023-03-30T02:03:38.984Z,13.07
2023-03-30T02:06:15.465Z,13.55
2023-03-30T02:08:44.895Z,13.55
2023-03-30T02:11:12.952Z,12.77
2023-03-30T02:13:42.453Z,11.30
2023-03-30T02:16:15.601Z,10.02
2023-03-30T02:18:45.678Z,13.75
2023-03-30T02:21:13.197Z,9.88
2023-03-30T02:23:45.401Z,11.30
2023-03-30T02:26:13.993Z,9.65
2023-03-30T02:28:40.978Z,8.68
2023-03-30T02:31:16.459Z,7.97
2023-03-30T02:34:02.738Z,11.80
2023-03-30T02:36:45.624Z,23.90
2023-03-30T02:39:50.747Z,21.73
2023-03-30T02:42:50.580Z,7.78
2023-03-30T02:45:43.053Z,6.55
2023-03-30T02:48:28.361Z,8.57
2023-03-30T02:51:39.126Z,7.57
2023-03-30T02:54:30.750Z,11.38
2023-03-30T02:57:34.248Z,11.60
2023-03-30T03:00:36.288Z,8.65
2023-03-30T03:03:12.833Z,7.43
2023-03-30T03:05:42.941Z,7.55
2023-03-30T03:08:14.884Z,10.15
2023-03-30T03:10:42.951Z,6.78
2023-03-30T03:13:11.029Z,14.25
2023-03-30T03:15:44.917Z,10.32
2023-03-30T03:20:41.216Z,11.52
2023-03-30T03:23:08.542Z,8.15
2023-03-30T03:25:48.645Z,10.90
2023-03-30T03:31:06.884Z,10.90
2023-03-30T03:33:34.853Z,9.23
2023-03-30T03:36:12.254Z,11.38
2023-03-30T03:39:01.158Z,13.60
2023-03-30T03:41:28.581Z,12.73
2023-03-30T03:43:55.640Z,16.05
2023-03-30T03:46:22.662Z,14.50
2023-03-30T03:48:49.791Z,13.68
2023-03-30T03:51:17.037Z,13.20
2023-03-30T03:53:44.072Z,10.52
2023-03-30T03:56:14.578Z,16.17
2023-03-30T03:58:41.606Z,15.98
2023-03-30T04:03:35.635Z,19.90
2023-03-30T04:06:02.860Z,16.67
2023-03-30T04:08:30.529Z,18.08
2023-03-30T04:11:08.284Z,23.02
2023-03-30T04:14:04.543Z,19.00
2023-03-30T04:16:57.889Z,32.25
2023-03-30T04:19:43.581Z,17.73
2023-03-30T04:22:26.322Z,19.20
2023-03-30T04:25:07.041Z,14.57
2023-03-30T04:28:05.194Z,14.27
2023-03-30T04:31:13.112Z,26.10
2023-03-30T04:33:52.273Z,24.80
2023-03-30T04:36:38.115Z,23.65
2023-03-30T04:39:37.546Z,22.13
2023-03-30T04:42:04.733Z,16.75
2023-03-30T04:44:43.072Z,26.30
2023-03-30T04:47:21.567Z,43.83
2023-03-30T04:50:16.087Z,43.90
2023-03-30T04:53:03.484Z,59.22
2023-03-30T04:55:30.217Z,71.80
2023-03-30T04:58:22.112Z,68.15
2023-03-30T05:01:07.519Z,84.50
2023-03-30T05:03:49.864Z,78.30
2023-03-30T05:06:28.010Z,66.47
2023-03-30T05:09:14.965Z,67.63
2023-03-30T05:12:04.976Z,60.95
2023-03-30T05:14:44.122Z,66.07
2023-03-30T05:17:33.855Z,39.22
2023-03-30T05:20:18.407Z,43.20
2023-03-30T05:23:03.498Z,42.50
2023-03-30T05:25:50.498Z,31.40
2023-03-30T05:28:36.108Z,40.45
2023-03-30T05:31:38.193Z,75.80
2023-03-30T05:34:31.460Z,54.83
2023-03-30T05:37:11.555Z,60.08
2023-03-30T05:39:43.624Z,75.18
2023-03-30T05:42:36.876Z,73.43
2023-03-30T05:45:30.214Z,69.03
2023-03-30T05:48:17.613Z,77.75
2023-03-30T05:51:08.400Z,56.50
2023-03-30T05:53:48.554Z,64.20
2023-03-30T05:56:37.402Z,68.40
2023-03-30T05:59:37.522Z,75.75
2023-03-30T06:02:17.893Z,68.32
2023-03-30T06:04:46.596Z,61.97
2023-03-30T06:07:13.910Z,80.15
2023-03-30T06:09:40.804Z,85.68
2023-03-30T06:12:17.053Z,79.35
2023-03-30T06:14:44.202Z,70.22
2023-03-30T06:17:31.824Z,67.07
2023-03-30T06:19:59.063Z,56.25
2023-03-30T06:22:28.019Z,37.38
2023-03-30T06:25:23.996Z,26.85
2023-03-30T06:27:52.374Z,32.20
2023-03-30T06:30:20.676Z,15.35
2023-03-30T06:32:51.857Z,16.05
2023-03-30T06:35:24.351Z,11.60
2023-03-30T06:37:52.933Z,15.20
2023-03-30T06:40:21.581Z,8.75
2023-03-30T06:42:51.706Z,7.25
2023-03-30T06:45:39.819Z,10.68
2023-03-30T06:48:07.452Z,14.77
2023-03-30T06:50:38.753Z,13.30
2023-03-30T06:53:23.323Z,22.15
2023-03-30T06:55:57.032Z,29.48
2023-03-30T06:58:26.250Z,31.55
2023-03-30T07:00:53.906Z,24.90
2023-03-30T07:03:45.572Z,10.55
2023-03-30T07:06:22.707Z,13.45
2023-03-30T07:08:49.862Z,12.85
2023-03-30T07:11:22.485Z,10.60
2023-03-30T07:13:51.185Z,13.68
2023-03-30T07:16:18.576Z,8.70
2023-03-30T07:18:47.044Z,8.23
2023-03-30T07:21:14.413Z,10.50
2023-03-30T07:23:43.432Z,5.35
2023-03-30T07:26:19.535Z,7.28
2023-03-30T07:28:58.494Z,6.82
2023-03-30T07:31:26.421Z,20.50
2023-03-30T07:33:54.949Z,6.90
2023-03-30T07:36:25.088Z,6.70
2023-03-30T07:38:52.803Z,6.75
2023-03-30T07:41:20.042Z,5.35
2023-03-30T07:43:52.389Z,3.42
2023-03-30T07:46:22.609Z,2.47
2023-03-30T07:48:52.994Z,3.88
2023-03-30T07:51:20.316Z,2.92
2023-03-30T07:54:06.814Z,2.35
2023-03-30T07:56:53.841Z,2.50
2023-03-30T07:59:23.745Z,4.13
2023-03-30T08:01:54.444Z,7.68
2023-03-30T08:04:56.672Z,3.85
2023-03-30T08:07:45.023Z,3.00
2023-03-30T08:10:18.143Z,1.92
2023-03-30T08:12:44.949Z,4.95
2023-03-30T08:15:12.216Z,4.03
2023-03-30T08:17:39.161Z,5.53
2023-03-30T08:20:10.995Z,3.33
2023-03-30T08:22:38.347Z,2.33
2023-03-30T08:25:05.762Z,4.63
2023-03-30T08:27:33.058Z,4.18
2023-03-30T08:30:00.376Z,2.95
2023-03-30T08:32:27.332Z,7.65
2023-03-30T08:34:55.275Z,3.92
2023-03-30T08:37:22.864Z,3.13
2023-03-30T08:39:49.711Z,3.88
2023-03-30T08:42:31.790Z,6.38
2023-03-30T08:45:05.507Z,10.82
2023-03-30T08:47:40.253Z,2.30
2023-03-30T08:50:36.884Z,6.13
2023-03-30T08:53:07.401Z,3.05
2023-03-30T08:55:47.466Z,4.05
2023-03-30T08:58:32.967Z,2.30
2023-03-30T09:01:29.392Z,2.22
2023-03-30T09:04:04.029Z,1.98
2023-03-30T09:06:49.193Z,4.03
2023-03-30T09:09:28.695Z,4.03
2023-03-30T09:12:06.099Z,1.92
2023-03-30T09:14:37.905Z,3.00
2023-03-30T09:17:15.381Z,5.28
2023-03-30T09:19:57.577Z,17.10
2023-03-30T09:22:41.034Z,4.90
2023-03-30T09:25:28.213Z,4.10
2023-03-30T09:28:01.051Z,2.83
2023-03-30T09:30:41.166Z,3.15
2023-03-30T09:33:30.936Z,2.55
2023-03-30T09:36:10.265Z,2.70
2023-03-30T09:38:41.869Z,2.30
2023-03-30T09:42:00.237Z,2.88
2023-03-30T09:44:33.789Z,3.88
2023-03-30T09:47:02.242Z,2.88
2023-03-30T09:49:38.308Z,2.25
2023-03-30T09:52:08.395Z,2.47
2023-03-30T09:54:40.903Z,3.97
2023-03-30T09:57:43.398Z,2.70
2023-03-30T10:00:31.394Z,4.45
2023-03-30T10:03:04.694Z,7.10
2023-03-30T10:05:34.135Z,2.13
2023-03-30T10:08:07.508Z,3.25
2023-03-30T10:10:36.784Z,8.10
2023-03-30T10:13:16.699Z,8.20
2023-03-30T10:15:48.484Z,2.67
2023-03-30T10:18:18.692Z,9.45
2023-03-30T10:20:53.691Z,3.65
2023-03-30T10:23:23.097Z,13.00
2023-03-30T10:25:52.365Z,19.00
2023-03-30T10:28:31.560Z,6.20
2023-03-30T10:31:03.153Z,10.68
2023-03-30T10:33:31.866Z,9.60
2023-03-30T10:36:03.589Z,2.70
2023-03-30T10:38:37.598Z,4.25
2023-03-30T10:41:17.214Z,5.22
2023-03-30T10:43:45.264Z,4.78
2023-03-30T10:46:20.091Z,4.32
2023-03-30T10:49:02.734Z,5.95
2023-03-30T10:51:36.168Z,18.20
2023-03-30T10:54:15.198Z,3.58
2023-03-30T10:56:49.600Z,2.25
2023-03-30T11:00:10.925Z,6.28
2023-03-30T11:02:59.586Z,2.63
2023-03-30T11:05:35.798Z,3.17
2023-03-30T11:08:26.048Z,3.65
2023-03-30T11:10:55.512Z,4.60
2023-03-30T11:13:29.324Z,2.72
2023-03-30T11:16:17.078Z,2.53
2023-03-30T11:18:57.641Z,2.60
2023-03-30T11:21:30.951Z,6.10
2023-03-30T11:24:04.799Z,3.38
2023-03-30T11:26:42.346Z,9.88
2023-03-30T11:29:48.146Z,5.07
2023-03-30T11:32:37.739Z,2.95
2023-03-30T11:35:30.287Z,4.82
2023-03-30T11:38:03.517Z,7.88
2023-03-30T11:40:44.281Z,4.80
2023-03-30T11:43:13.567Z,2.20
2023-03-30T11:46:16.176Z,2.58
2023-03-30T11:49:01.390Z,2.15
2023-03-30T11:51:34.182Z,4.75
2023-03-30T11:54:22.704Z,4.07
2023-03-30T11:57:13.346Z,2.65
2023-03-30T11:59:40.737Z,3.95
2023-03-30T12:02:26.521Z,2.63
2023-03-30T12:05:01.512Z,2.67
2023-03-30T12:07:52.584Z,3.75
2023-03-30T12:10:32.398Z,5.22
2023-03-30T12:13:00.744Z,2.47
2023-03-30T12:16:09.161Z,1.90
2023-03-30T12:19:06.653Z,6.05
2023-03-30T12:21:48.492Z,4.40
2023-03-30T12:24:29.583Z,1.73
2023-03-30T12:27:05.102Z,2.07
2023-03-30T12:32:26.349Z,2.00
2023-03-30T12:34:55.579Z,1.65
2023-03-30T12:37:28.584Z,5.15
2023-03-30T12:40:14.780Z,2.78
2023-03-30T12:42:55.792Z,33.33
2023-03-30T12:45:32.254Z,8.70
2023-03-30T12:48:17.069Z,2.28
2023-03-30T12:51:02.255Z,1.30
2023-03-30T12:53:41.749Z,3.15
2023-03-30T12:56:33.351Z,3.90
2023-03-30T13:01:46.330Z,1.80
2023-03-30T13:04:21.816Z,2.50
2023-03-30T13:06:57.283Z,1.95
2023-03-30T13:09:27.378Z,2.05
2023-03-30T13:11:54.409Z,3.53
2023-03-30T13:14:30.448Z,4.05
2023-03-30T13:17:00.148Z,1.70
2023-03-30T13:19:33.161Z,4.55
2023-03-30T13:22:03.580Z,5.05
2023-03-30T13:24:30.626Z,2.20
2023-03-30T13:27:19.489Z,4.68
2023-03-30T13:30:03.918Z,2.65
2023-03-30T13:32:40.118Z,4.57
2023-03-30T13:35:10.122Z,3.63
2023-03-30T13:37:55.814Z,3.97
2023-03-30T13:40:41.404Z,2.10
2023-03-30T13:43:34.072Z,2.33
2023-03-30T13:46:27.170Z,1.73
2023-03-30T13:49:03.065Z,5.20
2023-03-30T13:51:31.838Z,2.25
2023-03-30T13:54:03.762Z,1.13
2023-03-30T13:56:33.590Z,3.33
2023-03-30T13:59:17.093Z,3.25
2023-03-30T14:01:52.815Z,2.40
2023-03-30T14:04:20.645Z,2.15
2023-03-30T14:06:51.398Z,3.05
2023-03-30T14:09:25.035Z,1.33
2023-03-30T14:12:02.717Z,2.40
2023-03-30T14:14:30.101Z,4.60
2023-03-30T14:17:00.365Z,1.35
2023-03-30T14:20:11.519Z,1.52
2023-03-30T14:22:43.168Z,2.53
2023-03-30T14:25:24.285Z,2.88
2023-03-30T14:27:51.394Z,2.60
2023-03-30T14:30:29.733Z,1.60
2023-03-30T14:33:12.352Z,6.53
2023-03-30T14:35:46.768Z,1.60
2023-03-30T14:38:37.438Z,3.45
2023-03-30T14:41:25.095Z,4.13
2023-03-30T14:43:56.269Z,2.80
2023-03-30T14:46:32.625Z,3.60
2023-03-30T14:48:59.620Z,1.85
2023-03-30T14:51:37.964Z,2.42
2023-03-30T14:54:06.701Z,11.95
2023-03-30T14:56:34.131Z,16.10
2023-03-30T14:59:01.874Z,13.93
2023-03-30T15:01:33.445Z,2.22
2023-03-30T15:04:07.699Z,8.50
2023-03-30T15:06:36.948Z,2.58
2023-03-30T15:09:09.910Z,1.95
2023-03-30T15:11:39.848Z,4.30
2023-03-30T15:14:09.847Z,4.45
2023-03-30T15:16:37.900Z,3.03
2023-03-30T15:19:32.440Z,1.98
2023-03-30T15:22:03.471Z,2.35
2023-03-30T15:24:37.590Z,3.40
2023-03-30T15:27:07.772Z,2.10
2023-03-30T15:29:34.902Z,2.17
2023-03-30T15:32:11.596Z,4.32
2023-03-30T15:35:17.320Z,3.25
2023-03-30T15:37:56.391Z,2.50
2023-03-30T15:40:28.703Z,9.85
2023-03-30T15:43:11.531Z,7.65
2023-03-30T15:45:38.793Z,10.00
2023-03-30T15:48:11.820Z,13.95
2023-03-30T15:50:39.377Z,10.82
2023-03-30T15:53:13.855Z,13.75
2023-03-30T15:55:41.530Z,24.52
2023-03-30T15:58:13.841Z,33.42
2023-03-30T16:00:42.214Z,19.42
2023-03-30T16:03:13.031Z,13.68
2023-03-30T16:05:41.993Z,22.90
2023-03-30T16:08:08.769Z,9.65
2023-03-30T16:10:37.616Z,10.55
2023-03-30T16:13:07.221Z,18.83
2023-03-30T16:15:34.317Z,22.77
2023-03-30T16:18:01.230Z,34.03
2023-03-30T16:20:32.478Z,8.68
2023-03-30T16:23:04.635Z,11.90
2023-03-30T16:25:44.202Z,11.02
2023-03-30T16:28:17.503Z,13.95
2023-03-30T16:30:48.062Z,30.27
2023-03-30T16:33:15.429Z,42.25
2023-03-30T16:35:42.822Z,38.58
2023-03-30T16:38:16.418Z,37.22
2023-03-30T16:40:51.427Z,70.35
2023-03-30T16:43:18.461Z,51.03
2023-03-30T16:45:45.456Z,36.25
2023-03-30T16:48:15.171Z,28.58
2023-03-30T16:50:54.893Z,50.78
2023-03-30T16:53:22.039Z,48.92
2023-03-30T16:55:49.395Z,43.95
2023-03-30T16:58:17.364Z,41.20
2023-03-30T17:00:49.756Z,39.22
2023-03-30T17:03:18.204Z,32.85
2023-03-30T17:05:48.676Z,32.22
2023-03-30T17:08:27.802Z,26.55
2023-03-30T17:10:59.713Z,43.03
2023-03-30T17:13:27.804Z,55.83
2023-03-30T17:15:54.894Z,57.92
2023-03-30T17:18:24.135Z,64.25
2023-03-30T17:20:53.788Z,102.75
2023-03-30T17:23:23.484Z,78.78
2023-03-30T17:25:52.075Z,63.38
2023-03-30T17:28:28.362Z,62.67
2023-03-30T17:30:58.902Z,66.45
2023-03-30T17:33:26.447Z,64.30
2023-03-30T17:35:56.489Z,104.40
2023-03-30T17:38:24.220Z,90.93
2023-03-30T17:40:51.581Z,85.88
2023-03-30T17:43:18.844Z,57.42
2023-03-30T17:45:47.062Z,50.22
2023-03-30T17:48:17.712Z,106.25
2023-03-30T17:50:47.286Z,126.07
2023-03-30T17:53:39.404Z,94.40
2023-03-30T17:56:07.765Z,99.50
2023-03-30T17:58:36.441Z,89.25
2023-03-30T18:01:06.906Z,81.35
2023-03-30T18:03:35.307Z,94.78
2023-03-30T18:06:02.720Z,82.60
2023-03-30T18:08:29.627Z,100.57
2023-03-30T18:10:58.719Z,77.72
2023-03-30T18:13:27.686Z,53.60
2023-03-30T18:15:56.214Z,34.55
2023-03-30T18:18:26.353Z,30.45
2023-03-30T18:20:59.231Z,23.80
2023-03-30T18:23:26.226Z,22.73
2023-03-30T18:25:53.174Z,26.38
2023-03-30T18:28:25.505Z,87.13
2023-03-30T18:30:55.390Z,113.15
2023-03-30T18:33:27.852Z,87.28
2023-03-30T18:35:57.201Z,36.30
2023-03-30T18:38:25.258Z,27.13
2023-03-30T18:40:58.543Z,12.38
2023-03-30T18:43:28.758Z,12.50
2023-03-30T18:46:01.080Z,20.90
2023-03-30T18:48:29.086Z,17.45
2023-03-30T18:50:57.099Z,13.65
2023-03-30T18:53:27.245Z,15.23
2023-03-30T18:56:00.680Z,22.58
2023-03-30T18:58:31.469Z,18.55
2023-03-30T19:00:58.370Z,15.50
2023-03-30T19:03:28.073Z,12.45
2023-03-30T19:05:54.912Z,12.13
2023-03-30T19:08:24.119Z,12.25
2023-03-30T19:10:53.244Z,20.42
2023-03-30T19:13:21.526Z,17.27
2023-03-30T19:15:49.826Z,18.45
2023-03-30T19:18:18.003Z,22.17
2023-03-30T19:20:50.008Z,9.75
2023-03-30T19:23:31.011Z,7.45
2023-03-30T19:26:07.536Z,8.63
2023-03-30T19:28:34.766Z,14.13
2023-03-30T19:31:13.362Z,12.80
2023-03-30T19:33:40.696Z,14.68
2023-03-30T19:36:08.295Z,12.98
2023-03-30T19:38:35.914Z,13.05
2023-03-30T19:41:04.759Z,15.18
2023-03-30T19:43:31.966Z,11.07
2023-03-30T19:45:58.917Z,13.23
2023-03-30T19:48:27.682Z,16.77
2023-03-30T19:50:54.474Z,15.68
2023-03-30T19:53:21.800Z,31.55
2023-03-30T19:55:48.556Z,24.45
2023-03-30T19:58:15.502Z,39.97
2023-03-30T20:00:43.851Z,36.90
2023-03-30T20:03:12.588Z,53.13
2023-03-30T20:05:39.908Z,41.05
2023-03-30T20:08:17.272Z,34.70
2023-03-30T20:10:49.354Z,23.65
2023-03-30T20:13:17.225Z,25.23
2023-03-30T20:15:45.352Z,14.65
2023-03-30T20:18:12.275Z,8.40
2023-03-30T20:20:39.353Z,5.35
2023-03-30T20:23:06.347Z,8.77
2023-03-30T20:25:33.256Z,9.35
2023-03-30T20:28:00.239Z,11.10
2023-03-30T20:30:27.188Z,17.95
2023-03-30T20:33:06.809Z,17.38
2023-03-30T20:35:38.956Z,20.13
2023-03-30T20:38:08.319Z,19.67
2023-03-30T20:40:36.050Z,20.83
2023-03-30T20:43:03.686Z,24.48
2023-03-30T20:45:31.878Z,24.65
2023-03-30T20:47:59.842Z,31.67
2023-03-30T20:50:27.325Z,40.40
2023-03-30T20:52:54.133Z,25.45
2023-03-30T20:55:21.481Z,24.98
2023-03-30T20:57:48.552Z,10.10
2023-03-30T21:00:15.996Z,16.83
2023-03-30T21:02:46.788Z,18.20
2023-03-30T21:05:14.450Z,25.67
2023-03-30T21:07:42.369Z,78.38
2023-03-30T21:10:09.997Z,117.30
2023-03-30T21:12:36.878Z,50.53
2023-03-30T21:15:04.028Z,57.97
2023-03-30T21:17:31.063Z,60.00
2023-03-30T21:19:57.827Z,43.08
2023-03-30T21:22:25.235Z,27.05
2023-03-30T21:24:53.001Z,15.00
2023-03-30T21:27:19.774Z,18.85
2023-03-30T21:29:47.234Z,30.83
2023-03-30T21:32:14.188Z,20.60
2023-03-30T21:34:41.104Z,23.75
2023-03-30T21:37:09.105Z,15.45
2023-03-30T21:39:36.243Z,15.88
2023-03-30T21:42:05.231Z,16.33
2023-03-30T21:44:36.024Z,14.57
2023-03-30T21:47:03.239Z,15.23
2023-03-30T21:49:30.078Z,10.68
2023-03-30T21:51:57.050Z,13.48
2023-03-30T21:54:24.456Z,13.18
2023-03-30T21:56:51.343Z,13.23
2023-03-30T21:59:18.985Z,14.75
2023-03-30T22:01:46.091Z,12.15
2023-03-30T22:04:12.946Z,8.13
2023-03-30T22:06:39.783Z,8.18
2023-03-30T22:09:06.854Z,11.57
2023-03-30T22:11:33.776Z,9.15
2023-03-30T22:14:00.840Z,13.07
2023-03-30T22:16:31.613Z,12.05
2023-03-30T22:18:58.960Z,19.27
2023-03-30T22:21:34.606Z,13.88
2023-03-30T22:24:07.248Z,19.45
2023-03-30T22:26:35.978Z,16.20
2023-03-30T22:29:04.269Z,14.93
2023-03-30T22:31:31.236Z,11.07
2023-03-30T22:33:58.258Z,15.43
2023-03-30T22:36:30.004Z,18.20
2023-03-30T22:38:59.121Z,13.00
2023-03-30T22:41:36.440Z,16.25
2023-03-30T22:44:03.948Z,16.75
2023-03-30T22:46:37.203Z,16.35
2023-03-30T22:49:08.973Z,15.15
2023-03-30T22:51:39.118Z,22.27
2023-03-30T22:54:06.434Z,20.85
2023-03-30T22:56:33.396Z,13.32
2023-03-30T22:59:01.343Z,10.48
2023-03-30T23:01:32.089Z,14.82
2023-03-30T23:03:59.997Z,8.35
2023-03-30T23:06:27.203Z,33.42
2023-03-30T23:08:54.618Z,29.40
2023-03-30T23:11:21.696Z,19.75
2023-03-30T23:13:49.566Z,14.05
2023-03-30T23:16:16.530Z,21.02
2023-03-30T23:18:43.348Z,14.05
2023-03-30T23:21:11.176Z,9.05
2023-03-30T23:23:38.531Z,7.72
2023-03-30T23:26:09.722Z,10.27
2023-03-30T23:28:39.532Z,17.00
2023-03-30T23:31:12.264Z,10.02
2023-03-30T23:33:41.103Z,9.55
2023-03-30T23:36:09.065Z,10.48
2023-03-30T23:38:37.592Z,8.18
2023-03-30T23:41:06.423Z,9.43
2023-03-30T23:43:33.249Z,39.15
2023-03-30T23:46:00.213Z,13.75
2023-03-30T23:48:27.117Z,10.15
2023-03-30T23:50:54.066Z,8.57
2023-03-30T23:53:21.050Z,12.48
2023-03-30T23:55:50.069Z,17.50
2023-03-30T23:58:18.314Z,13.05
